createdAt,value
2019-05-11T00:00:07.298Z,29.40
2019-05-11T00:02:36.321Z,28.10
2019-05-11T00:05:05.772Z,29.33
2019-05-11T00:07:34.796Z,29.07
2019-05-11T00:10:04.429Z,29.50
2019-05-11T00:12:33.894Z,29.50
2019-05-11T00:15:03.277Z,30.87
2019-05-11T00:17:32.278Z,31.60
2019-05-11T00:20:01.687Z,31.23
2019-05-11T00:22:31.614Z,29.70
2019-05-11T00:25:00.654Z,30.83
2019-05-11T00:27:29.705Z,29.70
2019-05-11T00:29:59.113Z,31.13
2019-05-11T00:32:28.159Z,32.17
2019-05-11T00:34:57.211Z,30.03
2019-05-11T00:37:26.271Z,29.93
2019-05-11T00:39:55.355Z,31.10
2019-05-11T00:42:24.514Z,31.43
2019-05-11T00:44:53.562Z,30.30
2019-05-11T00:47:22.962Z,30.80
2019-05-11T00:49:52.353Z,30.87
2019-05-11T00:52:21.747Z,31.63
2019-05-11T00:54:50.786Z,30.20
2019-05-11T00:57:19.860Z,33.60
2019-05-11T00:59:48.854Z,33.43
2019-05-11T01:02:18.236Z,34.67
2019-05-11T01:04:47.723Z,32.73
2019-05-11T01:07:16.723Z,32.53
2019-05-11T01:09:45.769Z,33.87
2019-05-11T01:12:14.799Z,33.30
2019-05-11T01:14:43.906Z,34.47
2019-05-11T01:17:12.951Z,33.90
2019-05-11T01:19:42.014Z,37.17
2019-05-11T01:22:11.095Z,33.47
2019-05-11T01:24:40.105Z,35.23
2019-05-11T01:27:09.193Z,34.60
2019-05-11T01:29:38.277Z,35.90
2019-05-11T01:32:07.286Z,33.43
2019-05-11T01:34:36.661Z,36.43
2019-05-11T01:37:05.720Z,35.37
2019-05-11T01:39:34.780Z,35.23
2019-05-11T01:42:04.219Z,35.00
2019-05-11T01:44:33.569Z,34.10
2019-05-11T01:47:02.997Z,34.73
2019-05-11T01:49:32.011Z,35.20
2019-05-11T01:52:01.725Z,34.47
2019-05-11T01:54:30.739Z,34.67
2019-05-11T01:57:00.110Z,34.83
2019-05-11T01:59:29.116Z,34.23
2019-05-11T02:01:58.119Z,33.53
2019-05-11T02:04:27.473Z,33.33
2019-05-11T02:06:56.595Z,33.73
2019-05-11T02:09:25.643Z,34.23
2019-05-11T02:11:54.727Z,33.97
2019-05-11T02:14:24.059Z,35.57
2019-05-11T02:16:53.379Z,36.03
2019-05-11T02:19:22.371Z,36.53
2019-05-11T02:21:51.365Z,35.53
2019-05-11T02:24:20.697Z,34.90
2019-05-11T02:26:49.728Z,35.70
2019-05-11T02:29:18.781Z,35.47
2019-05-11T02:31:47.805Z,35.27
2019-05-11T02:34:16.845Z,34.07
2019-05-11T02:36:46.271Z,34.70
2019-05-11T02:39:15.248Z,31.90
2019-05-11T02:41:44.355Z,33.67
2019-05-11T02:44:13.823Z,33.37
2019-05-11T02:46:42.828Z,32.03
2019-05-11T02:49:11.848Z,34.90
2019-05-11T02:51:41.207Z,32.20
2019-05-11T02:54:11.583Z,33.40
2019-05-11T02:56:40.740Z,33.37
2019-05-11T02:59:09.776Z,27.80
2019-05-11T03:01:38.885Z,31.93
2019-05-11T03:04:07.948Z,29.43
2019-05-11T03:06:37.252Z,32.87
2019-05-11T03:09:07.683Z,31.37
2019-05-11T03:11:54.008Z,30.57
2019-05-11T03:14:07.479Z,32.67
2019-05-11T03:16:36.485Z,31.23
2019-05-11T03:19:05.569Z,31.37
2019-05-11T03:21:34.604Z,35.70
2019-05-11T03:24:03.711Z,29.43
2019-05-11T03:26:32.734Z,33.20
2019-05-11T03:29:02.085Z,32.20
2019-05-11T03:31:31.080Z,32.17
2019-05-11T03:34:00.120Z,32.60
2019-05-11T03:36:29.470Z,31.60
2019-05-11T03:38:58.493Z,30.47
2019-05-11T03:41:27.853Z,31.93
2019-05-11T03:43:56.930Z,30.40
2019-05-11T03:46:25.974Z,31.80
2019-05-11T03:48:55.031Z,29.77
2019-05-11T03:51:24.049Z,32.27
2019-05-11T03:53:53.153Z,31.67
2019-05-11T03:56:22.643Z,32.20
2019-05-11T03:58:51.653Z,32.50
2019-05-11T04:01:20.717Z,30.83
2019-05-11T04:03:49.744Z,31.20
2019-05-11T04:06:19.579Z,33.17
2019-05-11T04:08:48.698Z,32.70
2019-05-11T04:11:17.784Z,31.17
2019-05-11T04:13:46.925Z,32.80
2019-05-11T04:16:16.434Z,33.30
2019-05-11T04:18:45.466Z,32.80
2019-05-11T04:21:14.852Z,31.67
2019-05-11T04:23:44.247Z,31.43
2019-05-11T04:26:13.669Z,31.57
2019-05-11T04:28:42.686Z,32.30
2019-05-11T04:31:11.738Z,31.17
2019-05-11T04:33:41.123Z,30.50
2019-05-11T04:36:10.129Z,30.77
2019-05-11T04:38:39.909Z,32.20
2019-05-11T04:41:09.317Z,30.03
2019-05-11T04:43:38.727Z,31.63
2019-05-11T04:46:08.990Z,31.23
2019-05-11T04:48:38.043Z,30.27
2019-05-11T04:51:07.466Z,30.00
2019-05-11T04:53:36.810Z,30.13
2019-05-11T04:56:05.843Z,30.73
2019-05-11T04:58:35.246Z,30.20
2019-05-11T05:01:04.647Z,28.53
2019-05-11T05:03:40.872Z,30.17
2019-05-11T05:06:22.339Z,29.80
2019-05-11T05:08:35.591Z,27.40
2019-05-11T05:11:04.633Z,30.77
2019-05-11T05:13:33.690Z,30.37
2019-05-11T05:16:02.722Z,32.53
2019-05-11T05:18:31.774Z,31.63
2019-05-11T05:21:01.436Z,32.80
2019-05-11T05:23:31.206Z,34.43
2019-05-11T05:26:00.259Z,29.20
2019-05-11T05:28:29.730Z,34.37
2019-05-11T05:30:58.735Z,34.37
2019-05-11T05:33:28.171Z,36.13
2019-05-11T05:35:57.295Z,35.47
2019-05-11T05:38:30.318Z,37.20
2019-05-11T05:41:00.040Z,35.33
2019-05-11T05:43:30.680Z,37.77
2019-05-11T05:45:59.737Z,39.07
2019-05-11T05:48:29.095Z,37.40
2019-05-11T05:50:58.799Z,37.13
2019-05-11T05:53:28.951Z,38.23
2019-05-11T05:55:57.989Z,36.27
2019-05-11T05:58:27.263Z,35.97
2019-05-11T06:00:56.323Z,36.57
2019-05-11T06:03:25.807Z,31.53
2019-05-11T06:05:54.831Z,36.53
2019-05-11T06:08:23.867Z,36.43
2019-05-11T06:10:52.947Z,35.87
2019-05-11T06:13:22.593Z,33.07
2019-05-11T06:15:51.661Z,33.63
2019-05-11T06:18:21.516Z,33.97
2019-05-11T06:20:50.926Z,32.47
2019-05-11T06:23:19.959Z,29.33
2019-05-11T06:25:49.383Z,33.60
2019-05-11T06:28:18.485Z,33.40
2019-05-11T06:30:47.868Z,30.30
2019-05-11T06:33:17.303Z,32.10
2019-05-11T06:35:47.319Z,30.23
2019-05-11T06:38:16.317Z,31.13
2019-05-11T06:40:45.856Z,33.13
2019-05-11T06:43:14.929Z,28.17
2019-05-11T06:45:44.018Z,28.53
2019-05-11T06:48:13.105Z,29.70
2019-05-11T06:50:42.202Z,27.40
2019-05-11T06:53:11.259Z,30.03
2019-05-11T06:55:40.421Z,29.50
2019-05-11T06:58:09.494Z,26.43
2019-05-11T07:00:38.961Z,25.60
2019-05-11T07:03:08.316Z,28.67
2019-05-11T07:05:37.542Z,23.23
2019-05-11T07:08:06.637Z,29.00
2019-05-11T07:10:36.376Z,29.97
2019-05-11T07:13:05.486Z,25.40
2019-05-11T07:15:34.547Z,26.27
2019-05-11T07:18:03.629Z,25.30
2019-05-11T07:20:32.681Z,25.63
2019-05-11T07:23:02.109Z,24.43
2019-05-11T07:25:31.179Z,25.87
2019-05-11T07:28:00.249Z,25.33
2019-05-11T07:30:29.570Z,26.37
2019-05-11T07:33:01.101Z,25.13
2019-05-11T07:35:29.387Z,22.63
2019-05-11T07:37:58.714Z,24.63
2019-05-11T07:40:28.039Z,20.73
2019-05-11T07:42:58.953Z,20.70
2019-05-11T07:45:28.536Z,22.47
2019-05-11T07:47:59.032Z,19.70
2019-05-11T07:50:29.534Z,19.70
2019-05-11T07:52:58.996Z,15.73
2019-05-11T07:55:28.467Z,16.97
2019-05-11T07:57:58.635Z,18.73
2019-05-11T08:00:28.266Z,19.77
2019-05-11T08:02:58.485Z,18.10
2019-05-11T08:05:28.497Z,17.50
2019-05-11T08:07:59.512Z,18.97
2019-05-11T08:10:28.371Z,16.87
2019-05-11T08:12:58.806Z,15.23
2019-05-11T08:15:28.436Z,17.50
2019-05-11T08:17:58.007Z,14.10
2019-05-11T08:20:28.183Z,16.83
2019-05-11T08:22:58.703Z,15.23
2019-05-11T08:25:28.804Z,14.57
2019-05-11T08:27:58.958Z,15.67
2019-05-11T08:30:28.846Z,13.43
2019-05-11T08:32:58.388Z,12.83
2019-05-11T08:35:31.189Z,14.40
2019-05-11T08:37:58.562Z,14.30
2019-05-11T08:40:28.887Z,13.98
2019-05-11T08:42:58.351Z,14.05
2019-05-11T08:45:28.160Z,14.85
2019-05-11T08:47:58.137Z,14.93
2019-05-11T08:50:28.082Z,12.88
2019-05-11T08:52:58.188Z,15.50
2019-05-11T08:55:28.985Z,14.80
2019-05-11T08:57:58.667Z,13.62
2019-05-11T09:00:28.501Z,14.85
2019-05-11T09:02:58.383Z,14.28
2019-05-11T09:05:28.208Z,15.45
2019-05-11T09:07:57.912Z,14.58
2019-05-11T09:10:28.115Z,14.30
2019-05-11T09:12:59.112Z,16.87
2019-05-11T09:15:36.605Z,13.95
2019-05-11T09:17:59.629Z,14.33
2019-05-11T09:20:28.707Z,15.23
2019-05-11T09:22:58.952Z,13.93
2019-05-11T09:25:28.077Z,17.17
2019-05-11T09:27:58.766Z,14.80
2019-05-11T09:30:28.790Z,16.37
2019-05-11T09:32:58.391Z,16.00
2019-05-11T09:35:29.231Z,19.45
2019-05-11T09:37:58.878Z,20.57
2019-05-11T09:40:28.434Z,20.05
2019-05-11T09:42:58.532Z,19.60
2019-05-11T09:45:28.121Z,18.37
2019-05-11T09:47:58.375Z,15.55
2019-05-11T09:50:28.538Z,14.00
2019-05-11T09:52:58.305Z,15.08
2019-05-11T09:55:28.282Z,12.07
2019-05-11T09:57:58.078Z,15.72
2019-05-11T10:00:28.220Z,15.23
2019-05-11T10:02:57.788Z,16.97
2019-05-11T10:05:28.648Z,14.38
2019-05-11T10:07:58.896Z,15.63
2019-05-11T10:10:29.083Z,16.00
2019-05-11T10:12:59.017Z,17.10
2019-05-11T10:15:28.537Z,15.28
2019-05-11T10:17:59.009Z,13.08
2019-05-11T10:20:28.767Z,13.28
2019-05-11T10:22:58.116Z,9.80
2019-05-11T10:25:28.682Z,11.80
2019-05-11T10:27:58.278Z,12.95
2019-05-11T10:30:28.023Z,13.00
2019-05-11T10:32:57.868Z,13.48
2019-05-11T10:35:28.827Z,11.73
2019-05-11T10:37:58.296Z,14.38
2019-05-11T10:40:28.312Z,10.68
2019-05-11T10:42:59.013Z,11.80
2019-05-11T10:45:28.718Z,14.30
2019-05-11T10:48:00.951Z,13.32
2019-05-11T10:50:29.366Z,10.53
2019-05-11T10:52:59.160Z,9.88
2019-05-11T10:55:28.616Z,10.48
2019-05-11T10:57:58.201Z,10.88
2019-05-11T11:00:28.256Z,10.55
2019-05-11T11:02:58.155Z,9.88
2019-05-11T11:05:28.030Z,8.08
2019-05-11T11:07:58.819Z,11.18
2019-05-11T11:10:28.765Z,8.53
2019-05-11T11:12:57.970Z,9.80
2019-05-11T11:15:28.787Z,9.05
2019-05-11T11:17:58.350Z,9.38
2019-05-11T11:20:28.137Z,8.13
2019-05-11T11:22:58.407Z,6.97
2019-05-11T11:25:28.420Z,8.53
2019-05-11T11:27:58.003Z,9.43
2019-05-11T11:30:28.570Z,6.85
2019-05-11T11:32:58.732Z,7.00
2019-05-11T11:35:28.041Z,8.23
2019-05-11T11:37:58.460Z,8.85
2019-05-11T11:40:28.147Z,8.05
2019-05-11T11:42:58.185Z,7.20
2019-05-11T11:45:28.865Z,6.08
2019-05-11T11:47:58.458Z,6.40
2019-05-11T11:50:28.348Z,7.17
2019-05-11T11:52:58.039Z,6.10
2019-05-11T11:55:29.019Z,5.20
2019-05-11T11:57:58.884Z,6.00
2019-05-11T12:00:29.045Z,7.25
2019-05-11T12:02:59.064Z,4.70
2019-05-11T12:05:28.522Z,5.83
2019-05-11T12:07:58.100Z,6.78
2019-05-11T12:10:28.645Z,5.25
2019-05-11T12:12:58.270Z,5.45
2019-05-11T12:15:28.248Z,5.33
2019-05-11T12:17:58.716Z,5.67
2019-05-11T12:20:28.785Z,4.92
2019-05-11T12:22:58.281Z,4.62
2019-05-11T12:25:27.943Z,3.70
2019-05-11T12:27:57.750Z,4.20
2019-05-11T12:30:28.512Z,4.45
2019-05-11T12:32:57.846Z,3.72
2019-05-11T12:35:28.505Z,3.85
2019-05-11T12:37:58.753Z,3.47
2019-05-11T12:40:28.377Z,3.62
2019-05-11T12:42:59.081Z,3.58
2019-05-11T12:45:29.563Z,3.75
2019-05-11T12:47:59.095Z,3.80
2019-05-11T12:50:28.564Z,3.83
2019-05-11T12:52:58.839Z,3.40
2019-05-11T12:55:28.648Z,3.60
2019-05-11T12:57:58.134Z,3.60
2019-05-11T13:00:30.906Z,3.50
2019-05-11T13:02:58.798Z,3.47
2019-05-11T13:05:28.677Z,3.12
2019-05-11T13:08:01.659Z,3.10
2019-05-11T13:10:30.901Z,2.58
2019-05-11T13:13:02.951Z,2.62
2019-05-11T13:15:32.033Z,2.70
2019-05-11T13:18:01.126Z,2.58
2019-05-11T13:20:30.189Z,2.83
2019-05-11T13:22:59.629Z,2.58
2019-05-11T13:25:28.711Z,2.87
2019-05-11T13:27:58.343Z,2.72
2019-05-11T13:30:28.001Z,2.60
2019-05-11T13:32:57.937Z,2.30
2019-05-11T13:35:28.584Z,2.52
2019-05-11T13:37:58.457Z,2.20
2019-05-11T13:40:27.886Z,2.30
2019-05-11T13:42:58.170Z,2.80
2019-05-11T13:45:28.347Z,3.08
2019-05-11T13:47:59.254Z,2.50
2019-05-11T13:50:30.059Z,2.30
2019-05-11T13:52:59.400Z,2.72
2019-05-11T13:55:28.586Z,2.15
2019-05-11T13:57:57.982Z,2.30
2019-05-11T14:00:28.821Z,1.87
2019-05-11T14:03:00.289Z,2.30
2019-05-11T14:05:29.368Z,2.05
2019-05-11T14:07:58.817Z,2.22
2019-05-11T14:10:28.384Z,2.00
2019-05-11T14:12:58.149Z,1.82
2019-05-11T14:15:28.135Z,2.12
2019-05-11T14:18:07.709Z,2.05
2019-05-11T14:20:29.088Z,1.77
2019-05-11T14:22:58.465Z,2.00
2019-05-11T14:25:28.129Z,1.70
2019-05-11T14:27:59.497Z,2.10
2019-05-11T14:30:29.153Z,2.12
2019-05-11T14:32:58.538Z,2.08
2019-05-11T14:35:28.133Z,1.70
2019-05-11T14:37:58.754Z,2.35
2019-05-11T14:40:28.310Z,2.08
2019-05-11T14:42:58.160Z,1.98
2019-05-11T14:45:28.831Z,2.08
2019-05-11T14:48:00.114Z,2.20
2019-05-11T14:50:29.422Z,2.12
2019-05-11T14:52:58.510Z,2.40
2019-05-11T14:55:29.630Z,2.08
2019-05-11T14:57:58.736Z,2.40
2019-05-11T15:00:29.016Z,2.70
2019-05-11T15:02:58.538Z,2.52
2019-05-11T15:05:28.319Z,2.05
2019-05-11T15:07:58.315Z,1.80
2019-05-11T15:10:27.970Z,2.00
2019-05-11T15:12:59.090Z,2.00
2019-05-11T15:15:28.176Z,2.85
2019-05-11T15:17:58.120Z,2.47
2019-05-11T15:20:28.485Z,3.05
2019-05-11T15:22:58.326Z,2.58
2019-05-11T15:25:28.850Z,3.15
2019-05-11T15:27:58.565Z,3.00
2019-05-11T15:30:28.834Z,3.42
2019-05-11T15:32:58.564Z,2.75
2019-05-11T15:35:28.450Z,3.20
2019-05-11T15:37:58.339Z,3.08
2019-05-11T15:40:28.014Z,2.67
2019-05-11T15:42:58.564Z,2.60
2019-05-11T15:45:27.971Z,2.90
2019-05-11T15:47:58.933Z,3.27
2019-05-11T15:50:29.566Z,3.10
2019-05-11T15:52:58.851Z,2.85
2019-05-11T15:55:28.372Z,3.17
2019-05-11T15:57:57.530Z,3.47
2019-05-11T16:00:26.993Z,3.67
2019-05-11T16:02:57.821Z,3.55
2019-05-11T16:05:28.475Z,2.70
2019-05-11T16:07:58.866Z,2.90
2019-05-11T16:10:28.999Z,2.42
2019-05-11T16:12:58.541Z,2.47
2019-05-11T16:15:28.005Z,2.50
2019-05-11T16:17:57.807Z,1.85
2019-05-11T16:20:28.526Z,2.42
2019-05-11T16:22:58.090Z,2.72
2019-05-11T16:25:28.138Z,2.87
2019-05-11T16:27:57.235Z,2.42
2019-05-11T16:30:28.573Z,2.45
2019-05-11T16:32:58.081Z,2.72
2019-05-11T16:35:28.039Z,2.77
2019-05-11T16:37:59.182Z,3.25
2019-05-11T16:40:29.495Z,3.85
2019-05-11T16:42:58.957Z,2.77
2019-05-11T16:45:28.338Z,2.62
2019-05-11T16:47:58.829Z,3.20
2019-05-11T16:50:28.370Z,3.05
2019-05-11T16:52:58.542Z,2.85
2019-05-11T16:55:27.814Z,2.52
2019-05-11T16:57:58.793Z,2.50
2019-05-11T17:00:27.596Z,3.05
2019-05-11T17:02:57.711Z,2.65
2019-05-11T17:05:33.446Z,2.27
2019-05-11T17:07:58.838Z,2.20
2019-05-11T17:10:28.421Z,2.47
2019-05-11T17:12:58.176Z,2.60
2019-05-11T17:15:28.877Z,2.90
2019-05-11T17:17:58.809Z,2.20
2019-05-11T17:20:28.377Z,2.05
2019-05-11T17:22:57.431Z,2.40
2019-05-11T17:25:28.651Z,2.00
2019-05-11T17:27:58.780Z,1.90
2019-05-11T17:30:28.264Z,2.12
2019-05-11T17:32:59.354Z,2.02
2019-05-11T17:35:28.052Z,2.20
2019-05-11T17:37:57.075Z,2.17
2019-05-11T17:40:28.509Z,2.30
2019-05-11T17:42:58.589Z,2.40
2019-05-11T17:45:28.213Z,2.33
2019-05-11T17:47:58.278Z,2.33
2019-05-11T17:50:28.228Z,2.23
2019-05-11T17:52:57.852Z,2.97
2019-05-11T17:55:28.604Z,3.07
2019-05-11T17:57:58.322Z,2.80
2019-05-11T18:00:28.377Z,2.93
2019-05-11T18:02:58.362Z,2.50
2019-05-11T18:05:27.544Z,2.80
2019-05-11T18:07:57.982Z,2.67
2019-05-11T18:10:29.976Z,2.60
2019-05-11T18:13:04.008Z,2.40
2019-05-11T18:15:37.880Z,2.57
2019-05-11T18:18:09.157Z,3.00
2019-05-11T18:20:40.432Z,2.60
2019-05-11T18:23:09.914Z,2.10
2019-05-11T18:25:39.330Z,2.87
2019-05-11T18:28:14.226Z,2.13
2019-05-11T18:30:44.026Z,2.60
2019-05-11T18:33:14.010Z,2.50
2019-05-11T18:35:43.404Z,2.17
2019-05-11T18:38:12.445Z,2.00
2019-05-11T18:40:42.012Z,2.10
2019-05-11T18:43:11.408Z,1.87
2019-05-11T18:45:40.823Z,2.10
2019-05-11T18:48:09.924Z,2.00
2019-05-11T18:50:38.912Z,1.90
2019-05-11T18:53:09.132Z,2.17
2019-05-11T18:55:38.500Z,2.07
2019-05-11T18:58:07.557Z,2.20
2019-05-11T19:00:38.193Z,2.07
2019-05-11T19:03:08.780Z,2.17
2019-05-11T19:05:38.766Z,2.30
2019-05-11T19:08:08.374Z,2.07
2019-05-11T19:10:38.409Z,2.17
2019-05-11T19:13:07.608Z,2.53
2019-05-11T19:15:38.598Z,1.90
2019-05-11T19:18:07.512Z,1.93
2019-05-11T19:20:45.000Z,2.27
2019-05-11T19:23:08.381Z,2.20
2019-05-11T19:25:37.650Z,2.17
2019-05-11T19:28:08.534Z,2.47
2019-05-11T19:30:38.343Z,2.13
2019-05-11T19:33:10.757Z,2.80
2019-05-11T19:35:38.411Z,2.70
2019-05-11T19:38:08.662Z,2.87
2019-05-11T19:40:38.592Z,2.70
2019-05-11T19:43:08.451Z,3.30
2019-05-11T19:45:42.310Z,3.17
2019-05-11T19:48:10.408Z,2.40
2019-05-11T19:50:40.984Z,2.73
2019-05-11T19:53:10.135Z,3.10
2019-05-11T19:55:39.660Z,3.50
2019-05-11T19:58:09.445Z,3.10
2019-05-11T20:00:38.840Z,3.60
2019-05-11T20:03:09.061Z,4.00
2019-05-11T20:05:38.378Z,5.20
2019-05-11T20:08:08.026Z,5.57
2019-05-11T20:10:38.325Z,4.27
2019-05-11T20:13:08.062Z,3.70
2019-05-11T20:15:38.260Z,3.10
2019-05-11T20:18:07.985Z,3.50
2019-05-11T20:20:37.709Z,2.90
2019-05-11T20:23:07.828Z,2.63
2019-05-11T20:25:37.958Z,2.73
2019-05-11T20:28:07.210Z,2.50
2019-05-11T20:30:36.870Z,2.40
2019-05-11T20:33:05.894Z,2.40
2019-05-11T20:35:34.899Z,2.20
2019-05-11T20:38:04.037Z,2.60
2019-05-11T20:40:33.090Z,2.60
2019-05-11T20:43:02.468Z,2.47
2019-05-11T20:45:31.490Z,2.53
2019-05-11T20:48:00.621Z,2.90
2019-05-11T20:50:29.672Z,2.30
2019-05-11T20:52:59.012Z,2.43
2019-05-11T20:55:28.563Z,2.93
2019-05-11T20:57:58.356Z,2.80
2019-05-11T21:00:28.175Z,2.83
2019-05-11T21:02:58.863Z,2.80
2019-05-11T21:05:28.321Z,2.87
2019-05-11T21:07:57.922Z,2.87
2019-05-11T21:10:28.243Z,2.53
2019-05-11T21:12:58.014Z,3.37
2019-05-11T21:15:28.204Z,2.70
2019-05-11T21:17:58.651Z,2.93
2019-05-11T21:20:28.719Z,2.53
2019-05-11T21:22:58.160Z,2.73
2019-05-11T21:25:28.663Z,2.83
2019-05-11T21:27:58.105Z,2.93
2019-05-11T21:30:27.156Z,2.37
2019-05-11T21:32:58.136Z,2.73
2019-05-11T21:35:28.069Z,3.07
2019-05-11T21:37:57.987Z,3.40
2019-05-11T21:40:28.924Z,2.70
2019-05-11T21:42:58.156Z,2.90
2019-05-11T21:45:28.371Z,3.60
2019-05-11T21:47:58.100Z,2.77
2019-05-11T21:50:27.961Z,2.90
2019-05-11T21:52:58.928Z,3.20
2019-05-11T21:55:29.256Z,3.10
2019-05-11T21:57:58.982Z,2.83
2019-05-11T22:00:30.506Z,3.10
2019-05-11T22:02:59.931Z,2.97
2019-05-11T22:05:29.185Z,3.00
2019-05-11T22:07:58.378Z,4.57
2019-05-11T22:10:28.283Z,4.23
2019-05-11T22:12:57.579Z,4.03
2019-05-11T22:15:28.423Z,4.37
2019-05-11T22:17:58.546Z,3.70
2019-05-11T22:20:28.764Z,3.97
2019-05-11T22:22:58.412Z,3.43
2019-05-11T22:25:28.704Z,3.37
2019-05-11T22:27:58.043Z,4.97
2019-05-11T22:30:27.824Z,4.57
2019-05-11T22:32:58.322Z,4.17
2019-05-11T22:35:28.701Z,4.00
2019-05-11T22:37:57.957Z,4.97
2019-05-11T22:40:27.985Z,3.33
2019-05-11T22:43:00.833Z,4.83
2019-05-11T22:45:28.111Z,4.80
2019-05-11T22:47:58.479Z,4.73
2019-05-11T22:50:29.078Z,4.50
2019-05-11T22:52:58.431Z,4.83
2019-05-11T22:55:27.848Z,5.10
2019-05-11T22:57:57.888Z,5.93
2019-05-11T23:00:41.726Z,6.37
2019-05-11T23:03:11.168Z,5.57
2019-05-11T23:05:40.785Z,6.40
2019-05-11T23:08:09.795Z,6.03
2019-05-11T23:10:39.404Z,6.03
2019-05-11T23:13:11.214Z,5.47
2019-05-11T23:15:40.623Z,5.53
2019-05-11T23:18:09.817Z,5.83
2019-05-11T23:20:38.995Z,5.20
2019-05-11T23:23:09.012Z,4.70
2019-05-11T23:25:38.162Z,4.90
2019-05-11T23:28:07.545Z,5.70
2019-05-11T23:30:38.899Z,4.77
2019-05-11T23:33:08.149Z,4.70
2019-05-11T23:35:38.193Z,4.80
2019-05-11T23:38:07.606Z,5.10
2019-05-11T23:40:37.858Z,4.70
2019-05-11T23:43:08.650Z,4.40
2019-05-11T23:45:38.569Z,6.17
2019-05-11T23:48:07.734Z,5.47
2019-05-11T23:50:38.589Z,5.23
2019-05-11T23:53:10.240Z,5.23
2019-05-11T23:55:38.942Z,5.27
2019-05-11T23:58:08.374Z,4.53
